createdAt,value
2022-08-20T00:00:15.045Z,2.83
2022-08-20T00:02:43.481Z,3.60
2022-08-20T00:05:10.049Z,3.23
2022-08-20T00:07:36.554Z,3.80
2022-08-20T00:10:05.912Z,3.20
2022-08-20T00:12:32.682Z,3.40
2022-08-20T00:15:01.773Z,3.80
2022-08-20T00:17:34.236Z,3.50
2022-08-20T00:20:00.731Z,4.33
2022-08-20T00:22:28.079Z,3.77
2022-08-20T00:24:54.534Z,3.43
2022-08-20T00:27:20.995Z,3.60
2022-08-20T00:29:47.886Z,4.10
2022-08-20T00:32:14.367Z,3.43
2022-08-20T00:34:42.354Z,3.63
2022-08-20T00:37:09.161Z,3.73
2022-08-20T00:39:36.034Z,3.93
2022-08-20T00:42:03.203Z,3.43
2022-08-20T00:44:30.008Z,3.23
2022-08-20T00:46:56.508Z,3.23
2022-08-20T00:49:25.793Z,3.77
2022-08-20T00:51:58.200Z,3.57
2022-08-20T00:54:35.400Z,3.20
2022-08-20T00:57:04.427Z,3.10
2022-08-20T00:59:32.132Z,3.90
2022-08-20T01:01:59.951Z,3.27
2022-08-20T01:04:27.880Z,3.77
2022-08-20T01:06:54.587Z,3.10
2022-08-20T01:09:49.706Z,3.40
2022-08-20T01:12:08.645Z,3.23
2022-08-20T01:14:35.389Z,3.20
2022-08-20T01:17:07.664Z,3.33
2022-08-20T01:19:39.296Z,4.17
2022-08-20T01:22:26.667Z,3.80
2022-08-20T01:24:56.450Z,4.30
2022-08-20T01:27:27.990Z,4.30
2022-08-20T01:29:57.753Z,4.23
2022-08-20T01:32:24.413Z,4.10
2022-08-20T01:34:50.880Z,4.30
2022-08-20T01:37:17.373Z,4.20
2022-08-20T01:39:43.902Z,3.97
2022-08-20T01:42:17.373Z,4.70
2022-08-20T01:44:44.763Z,4.50
2022-08-20T01:47:28.417Z,5.20
2022-08-20T01:49:56.721Z,5.40
2022-08-20T01:52:29.132Z,4.60
2022-08-20T01:54:56.297Z,5.27
2022-08-20T01:57:26.108Z,4.00
2022-08-20T01:59:53.399Z,4.57
2022-08-20T02:02:19.866Z,4.90
2022-08-20T02:04:46.363Z,4.10
2022-08-20T02:07:15.266Z,4.27
2022-08-20T02:09:42.260Z,4.57
2022-08-20T02:12:09.472Z,4.70
2022-08-20T02:14:39.717Z,4.83
2022-08-20T02:17:07.065Z,4.17
2022-08-20T02:19:35.534Z,4.33
2022-08-20T02:22:04.603Z,4.73
2022-08-20T02:24:31.176Z,4.63
2022-08-20T02:26:57.673Z,3.97
2022-08-20T02:29:24.302Z,4.33
2022-08-20T02:32:24.546Z,3.93
2022-08-20T02:34:37.776Z,4.20
2022-08-20T02:37:05.175Z,3.77
2022-08-20T02:39:31.885Z,4.10
2022-08-20T02:41:58.496Z,4.27
2022-08-20T02:44:25.035Z,3.87
2022-08-20T02:46:51.564Z,4.07
2022-08-20T02:49:18.480Z,3.90
2022-08-20T02:51:45.344Z,4.00
2022-08-20T02:54:12.602Z,4.63
2022-08-20T02:56:39.424Z,4.23
2022-08-20T02:59:06.662Z,3.90
2022-08-20T03:01:33.187Z,3.83
2022-08-20T03:04:00.219Z,3.80
2022-08-20T03:06:27.009Z,4.37
2022-08-20T03:08:53.791Z,4.20
2022-08-20T03:11:20.722Z,4.10
2022-08-20T03:13:47.295Z,3.57
2022-08-20T03:16:14.319Z,3.70
2022-08-20T03:18:42.505Z,4.37
2022-08-20T03:21:09.900Z,4.37
2022-08-20T03:23:38.164Z,3.70
2022-08-20T03:26:08.516Z,4.47
2022-08-20T03:28:35.019Z,4.40
2022-08-20T03:31:01.494Z,4.13
2022-08-20T03:33:28.797Z,3.67
2022-08-20T03:35:55.263Z,4.13
2022-08-20T03:38:33.285Z,4.77
2022-08-20T03:41:00.850Z,4.23
2022-08-20T03:43:27.364Z,5.50
2022-08-20T03:45:53.810Z,4.90
2022-08-20T03:48:20.940Z,4.37
2022-08-20T03:50:48.491Z,4.60
2022-08-20T03:53:15.721Z,4.33
2022-08-20T03:55:43.180Z,4.07
2022-08-20T03:58:13.492Z,4.57
2022-08-20T04:00:42.283Z,4.37
2022-08-20T04:03:09.284Z,3.93
2022-08-20T04:05:40.330Z,4.67
2022-08-20T04:08:16.445Z,4.10
2022-08-20T04:10:43.286Z,4.63
2022-08-20T04:13:10.612Z,4.03
2022-08-20T04:15:37.544Z,4.37
2022-08-20T04:18:09.082Z,4.27
2022-08-20T04:20:37.558Z,4.40
2022-08-20T04:23:04.698Z,4.00
2022-08-20T04:25:35.941Z,4.13
2022-08-20T04:28:06.526Z,4.10
2022-08-20T04:30:33.452Z,4.30
2022-08-20T04:33:00.223Z,4.55
2022-08-20T04:35:27.148Z,4.20
2022-08-20T04:38:04.353Z,4.30
2022-08-20T04:40:49.180Z,4.20
2022-08-20T04:43:15.875Z,4.35
2022-08-20T04:45:42.724Z,4.13
2022-08-20T04:48:14.237Z,3.67
2022-08-20T04:50:42.934Z,4.45
2022-08-20T04:53:12.161Z,4.00
2022-08-20T04:55:41.497Z,4.05
2022-08-20T04:58:13.109Z,4.38
2022-08-20T05:00:40.028Z,4.22
2022-08-20T05:03:09.479Z,4.10
2022-08-20T05:05:35.967Z,4.53
2022-08-20T05:08:03.121Z,4.53
2022-08-20T05:10:29.804Z,4.85
2022-08-20T05:12:57.210Z,5.20
2022-08-20T05:15:25.407Z,5.00
2022-08-20T05:17:55.289Z,5.30
2022-08-20T05:20:22.106Z,5.10
2022-08-20T05:22:48.572Z,5.47
2022-08-20T05:25:15.039Z,4.82
2022-08-20T05:27:47.297Z,4.45
2022-08-20T05:30:14.838Z,4.57
2022-08-20T05:32:44.459Z,4.00
2022-08-20T05:35:11.502Z,4.35
2022-08-20T05:37:38.564Z,4.10
2022-08-20T05:40:10.459Z,4.05
2022-08-20T05:42:37.792Z,3.92
2022-08-20T05:45:04.761Z,3.92
2022-08-20T05:47:42.957Z,4.13
2022-08-20T05:50:11.093Z,3.63
2022-08-20T05:52:47.230Z,3.72
2022-08-20T05:55:13.756Z,3.95
2022-08-20T05:57:40.941Z,3.80
2022-08-20T06:00:09.059Z,3.78
2022-08-20T06:02:54.079Z,3.85
2022-08-20T06:05:20.571Z,3.85
2022-08-20T06:07:47.054Z,3.40
2022-08-20T06:10:13.951Z,3.58
2022-08-20T06:12:40.432Z,3.78
2022-08-20T06:15:07.088Z,3.60
2022-08-20T06:17:39.618Z,2.97
2022-08-20T06:20:08.005Z,4.53
2022-08-20T06:22:34.457Z,4.13
2022-08-20T06:25:01.251Z,3.80
2022-08-20T06:27:28.150Z,3.92
2022-08-20T06:29:54.693Z,3.83
2022-08-20T06:32:32.266Z,4.00
2022-08-20T06:35:02.043Z,3.20
2022-08-20T06:37:31.934Z,3.75
2022-08-20T06:40:07.194Z,3.67
2022-08-20T06:42:33.713Z,4.10
2022-08-20T06:45:00.577Z,3.50
2022-08-20T06:47:27.056Z,3.78
2022-08-20T06:49:53.548Z,2.97
2022-08-20T06:52:52.090Z,3.60
2022-08-20T06:55:10.978Z,3.28
2022-08-20T06:57:37.676Z,3.88
2022-08-20T07:00:08.275Z,3.22
2022-08-20T07:02:35.930Z,3.25
2022-08-20T07:05:05.137Z,3.40
2022-08-20T07:07:31.653Z,3.17
2022-08-20T07:10:02.302Z,2.97
2022-08-20T07:12:28.784Z,3.05
2022-08-20T07:14:55.271Z,2.88
2022-08-20T07:17:24.139Z,3.50
2022-08-20T07:19:50.740Z,2.78
2022-08-20T07:22:17.470Z,2.90
2022-08-20T07:24:48.935Z,2.70
2022-08-20T07:27:19.648Z,2.60
2022-08-20T07:30:04.591Z,3.10
2022-08-20T07:32:39.428Z,2.70
2022-08-20T07:35:11.379Z,2.38
2022-08-20T07:37:42.284Z,2.70
2022-08-20T07:40:11.446Z,2.60
2022-08-20T07:42:39.372Z,3.15
2022-08-20T07:45:10.875Z,2.85
2022-08-20T07:47:41.831Z,2.67
2022-08-20T07:50:09.679Z,2.95
2022-08-20T07:52:36.378Z,2.42
2022-08-20T07:55:04.505Z,3.40
2022-08-20T07:57:31.004Z,2.60
2022-08-20T07:59:59.145Z,2.50
2022-08-20T08:02:28.605Z,2.45
2022-08-20T08:04:55.462Z,2.30
2022-08-20T08:07:22.292Z,2.75
2022-08-20T08:09:49.389Z,2.90
2022-08-20T08:12:16.133Z,2.60
2022-08-20T08:14:45.059Z,2.90
2022-08-20T08:17:12.591Z,3.00
2022-08-20T08:19:41.241Z,2.50
2022-08-20T08:22:11.509Z,2.53
2022-08-20T08:24:38.600Z,2.80
2022-08-20T08:27:05.152Z,2.63
2022-08-20T08:29:31.603Z,2.83
2022-08-20T08:32:00.815Z,2.83
2022-08-20T08:34:27.313Z,2.45
2022-08-20T08:36:53.787Z,2.30
2022-08-20T08:39:22.554Z,2.35
2022-08-20T08:41:50.365Z,2.97
2022-08-20T08:44:27.855Z,2.58
2022-08-20T08:46:59.205Z,2.50
2022-08-20T08:49:37.368Z,2.38
2022-08-20T08:52:28.017Z,2.42
2022-08-20T08:54:56.468Z,2.47
2022-08-20T08:57:24.162Z,2.50
2022-08-20T09:00:03.924Z,2.47
2022-08-20T09:02:33.365Z,2.67
2022-08-20T09:05:01.990Z,2.70
2022-08-20T09:07:31.425Z,2.30
2022-08-20T09:09:58.290Z,2.90
2022-08-20T09:12:27.811Z,2.50
2022-08-20T09:14:54.434Z,2.67
2022-08-20T09:17:22.089Z,2.65
2022-08-20T09:19:49.260Z,2.55
2022-08-20T09:22:19.597Z,2.40
2022-08-20T09:24:46.257Z,2.65
2022-08-20T09:27:13.094Z,2.40
2022-08-20T09:29:39.928Z,2.50
2022-08-20T09:32:26.679Z,2.90
2022-08-20T09:34:58.217Z,2.27
2022-08-20T09:37:25.947Z,2.88
2022-08-20T09:39:52.803Z,2.20
2022-08-20T09:42:20.622Z,3.08
2022-08-20T09:44:47.507Z,2.83
2022-08-20T09:47:14.205Z,2.30
2022-08-20T09:49:41.095Z,2.67
2022-08-20T09:52:08.788Z,2.70
2022-08-20T09:54:36.186Z,2.50
2022-08-20T09:57:04.563Z,2.40
2022-08-20T09:59:32.512Z,2.88
2022-08-20T10:01:59.363Z,2.70
2022-08-20T10:04:25.862Z,2.80
2022-08-20T10:06:52.378Z,3.03
2022-08-20T10:09:19.053Z,2.85
2022-08-20T10:11:45.536Z,2.38
2022-08-20T10:14:11.992Z,2.92
2022-08-20T10:16:38.514Z,2.53
2022-08-20T10:19:05.576Z,2.63
2022-08-20T10:21:36.727Z,2.63
2022-08-20T10:24:05.281Z,2.67
2022-08-20T10:26:31.778Z,2.85
2022-08-20T10:28:58.250Z,2.70
2022-08-20T10:31:24.717Z,2.38
2022-08-20T10:33:51.247Z,2.53
2022-08-20T10:36:17.881Z,2.65
2022-08-20T10:38:44.799Z,2.58
2022-08-20T10:41:11.550Z,2.80
2022-08-20T10:43:38.094Z,2.58
2022-08-20T10:46:04.662Z,2.30
2022-08-20T10:48:31.218Z,2.70
2022-08-20T10:50:57.799Z,2.80
2022-08-20T10:53:31.225Z,2.48
2022-08-20T10:55:58.072Z,2.90
2022-08-20T10:58:25.316Z,2.58
2022-08-20T11:00:52.387Z,2.80
2022-08-20T11:03:19.651Z,2.65
2022-08-20T11:05:46.571Z,3.08
2022-08-20T11:08:13.454Z,2.65
2022-08-20T11:10:41.290Z,3.05
2022-08-20T11:13:08.625Z,3.05
2022-08-20T11:15:40.096Z,2.92
2022-08-20T11:18:07.170Z,2.67
2022-08-20T11:20:33.813Z,2.80
2022-08-20T11:23:00.362Z,2.70
2022-08-20T11:25:27.273Z,3.00
2022-08-20T11:27:56.455Z,3.28
2022-08-20T11:30:24.885Z,2.75
2022-08-20T11:32:51.718Z,2.90
2022-08-20T11:35:41.798Z,2.90
2022-08-20T11:38:05.943Z,3.08
2022-08-20T11:40:32.918Z,3.25
2022-08-20T11:43:14.145Z,2.90
2022-08-20T11:45:41.953Z,2.42
2022-08-20T11:48:08.435Z,2.83
2022-08-20T11:50:34.919Z,2.88
2022-08-20T11:53:01.732Z,2.60
2022-08-20T11:55:30.107Z,3.05
2022-08-20T11:57:57.328Z,2.58
2022-08-20T12:00:32.271Z,2.80
2022-08-20T12:03:01.207Z,2.65
2022-08-20T12:05:29.636Z,2.55
2022-08-20T12:07:56.675Z,2.80
2022-08-20T12:10:24.536Z,3.00
2022-08-20T12:12:51.037Z,2.47
2022-08-20T12:15:17.548Z,3.28
2022-08-20T12:17:44.323Z,2.80
2022-08-20T12:20:12.275Z,2.33
2022-08-20T12:22:39.227Z,2.50
2022-08-20T12:25:06.092Z,2.70
2022-08-20T12:27:33.877Z,2.30
2022-08-20T12:30:01.860Z,2.83
2022-08-20T12:32:29.543Z,2.97
2022-08-20T12:34:56.135Z,2.70
2022-08-20T12:37:23.794Z,2.65
2022-08-20T12:39:52.118Z,3.20
2022-08-20T12:42:18.755Z,2.70
2022-08-20T12:44:45.194Z,3.17
2022-08-20T12:47:19.123Z,2.67
2022-08-20T12:49:47.397Z,3.42
2022-08-20T12:52:14.627Z,3.17
2022-08-20T12:54:41.499Z,2.67
2022-08-20T12:57:13.164Z,3.03
2022-08-20T12:59:39.613Z,2.92
2022-08-20T13:02:14.304Z,3.28
2022-08-20T13:04:45.506Z,3.22
2022-08-20T13:07:13.038Z,2.90
2022-08-20T13:09:40.413Z,2.88
2022-08-20T13:12:07.445Z,2.80
2022-08-20T13:14:33.944Z,2.75
2022-08-20T13:17:01.413Z,2.88
2022-08-20T13:19:29.014Z,3.00
2022-08-20T13:21:55.527Z,3.22
2022-08-20T13:24:22.785Z,3.03
2022-08-20T13:26:49.982Z,2.60
2022-08-20T13:29:16.759Z,3.50
2022-08-20T13:31:43.521Z,2.72
2022-08-20T13:34:10.382Z,2.60
2022-08-20T13:36:36.990Z,3.08
2022-08-20T13:39:04.495Z,2.55
2022-08-20T13:41:30.982Z,3.05
2022-08-20T13:43:57.504Z,3.00
2022-08-20T13:46:23.971Z,2.90
2022-08-20T13:48:50.474Z,2.60
2022-08-20T13:51:19.012Z,2.78
2022-08-20T13:53:46.009Z,3.05
2022-08-20T13:56:13.368Z,2.67
2022-08-20T13:58:39.887Z,3.10
2022-08-20T14:01:06.474Z,3.15
2022-08-20T14:03:34.842Z,3.13
2022-08-20T14:06:02.295Z,2.85
2022-08-20T14:08:29.080Z,2.85
2022-08-20T14:10:55.679Z,2.67
2022-08-20T14:13:25.402Z,2.78
2022-08-20T14:15:51.948Z,2.60
2022-08-20T14:18:18.972Z,3.00
2022-08-20T14:20:45.910Z,2.90
2022-08-20T14:23:12.564Z,2.72
2022-08-20T14:25:39.085Z,2.33
2022-08-20T14:28:10.317Z,2.92
2022-08-20T14:30:36.838Z,2.63
2022-08-20T14:33:03.359Z,2.92
2022-08-20T14:35:29.860Z,2.50
2022-08-20T14:37:57.411Z,2.65
2022-08-20T14:40:24.867Z,2.55
2022-08-20T14:42:54.865Z,2.45
2022-08-20T14:45:22.014Z,2.78
2022-08-20T14:47:57.091Z,2.72
2022-08-20T14:50:28.542Z,2.55
2022-08-20T14:52:55.587Z,2.60
2022-08-20T14:55:23.479Z,2.30
2022-08-20T14:57:50.818Z,2.67
2022-08-20T15:00:28.250Z,2.50
2022-08-20T15:02:55.182Z,2.42
2022-08-20T15:05:21.829Z,2.33
2022-08-20T15:07:51.923Z,2.60
2022-08-20T15:10:25.410Z,2.33
2022-08-20T15:12:52.048Z,2.47
2022-08-20T15:15:19.050Z,2.67
2022-08-20T15:17:49.853Z,2.30
2022-08-20T15:20:20.490Z,2.60
2022-08-20T15:22:48.104Z,2.63
2022-08-20T15:25:15.719Z,2.38
2022-08-20T15:27:42.401Z,2.17
2022-08-20T15:30:10.800Z,2.42
2022-08-20T15:32:37.297Z,3.13
2022-08-20T15:35:03.946Z,2.60
2022-08-20T15:37:32.166Z,2.67
2022-08-20T15:40:02.070Z,3.08
2022-08-20T15:42:28.781Z,2.72
2022-08-20T15:44:55.247Z,2.58
2022-08-20T15:47:28.869Z,2.75
2022-08-20T15:50:07.937Z,2.58
2022-08-20T15:52:42.155Z,2.40
2022-08-20T15:55:11.784Z,2.03
2022-08-20T15:57:49.557Z,2.65
2022-08-20T16:00:20.045Z,3.03
2022-08-20T16:02:53.232Z,2.65
2022-08-20T16:05:38.161Z,2.95
2022-08-20T16:08:13.562Z,2.60
2022-08-20T16:10:40.020Z,2.17
2022-08-20T16:13:12.575Z,2.60
2022-08-20T16:15:40.985Z,2.63
2022-08-20T16:18:13.489Z,2.70
2022-08-20T16:20:41.656Z,3.28
2022-08-20T16:23:08.995Z,2.33
2022-08-20T16:25:58.651Z,3.13
2022-08-20T16:28:26.547Z,3.25
2022-08-20T16:30:59.785Z,3.03
2022-08-20T16:33:29.575Z,3.30
2022-08-20T16:35:58.788Z,2.53
2022-08-20T16:38:25.284Z,2.97
2022-08-20T16:40:56.391Z,2.90
2022-08-20T16:43:45.713Z,2.90
2022-08-20T16:46:23.084Z,3.05
2022-08-20T16:48:56.142Z,3.72
2022-08-20T16:51:27.268Z,2.53
2022-08-20T16:53:53.730Z,3.45
2022-08-20T16:56:36.533Z,3.82
2022-08-20T16:59:06.851Z,2.85
2022-08-20T17:01:33.418Z,3.42
2022-08-20T17:04:00.003Z,2.58
2022-08-20T17:06:26.521Z,3.00
2022-08-20T17:08:53.102Z,2.42
2022-08-20T17:11:26.661Z,2.75
2022-08-20T17:14:02.486Z,2.90
2022-08-20T17:16:33.415Z,2.88
2022-08-20T17:19:07.049Z,3.00
2022-08-20T17:21:35.680Z,3.03
2022-08-20T17:24:09.193Z,3.83
2022-08-20T17:26:45.959Z,3.85
2022-08-20T17:29:14.600Z,3.58
2022-08-20T17:31:42.909Z,3.95
2022-08-20T17:34:17.009Z,2.78
2022-08-20T17:36:51.511Z,4.35
2022-08-20T17:39:19.176Z,4.15
2022-08-20T17:41:49.663Z,3.33
2022-08-20T17:44:25.334Z,3.72
2022-08-20T17:46:52.717Z,3.90
2022-08-20T17:49:21.238Z,3.35
2022-08-20T17:51:50.182Z,2.50
2022-08-20T17:54:34.501Z,2.92
2022-08-20T17:57:09.509Z,2.22
2022-08-20T18:00:01.287Z,2.95
2022-08-20T18:02:25.882Z,3.03
2022-08-20T18:04:53.965Z,3.03
2022-08-20T18:07:24.701Z,2.70
2022-08-20T18:10:09.641Z,2.78
2022-08-20T18:12:39.153Z,2.80
2022-08-20T18:15:08.608Z,2.50
2022-08-20T18:17:53.722Z,3.30
2022-08-20T18:20:40.459Z,2.83
2022-08-20T18:23:11.627Z,3.53
2022-08-20T18:25:49.743Z,4.15
2022-08-20T18:28:21.914Z,3.30
2022-08-20T18:31:00.237Z,3.90
2022-08-20T18:33:26.736Z,3.70
2022-08-20T18:36:02.818Z,3.58
2022-08-20T18:38:30.683Z,3.42
2022-08-20T18:41:07.417Z,3.50
2022-08-20T18:43:33.955Z,3.75
2022-08-20T18:46:11.208Z,4.00
2022-08-20T18:48:37.873Z,3.42
2022-08-20T18:51:07.796Z,3.83
2022-08-20T18:53:35.060Z,3.85
2022-08-20T18:56:11.773Z,3.22
2022-08-20T18:58:48.698Z,4.30
2022-08-20T19:01:15.436Z,3.90
2022-08-20T19:03:44.806Z,3.50
2022-08-20T19:06:11.322Z,4.38
2022-08-20T19:08:43.470Z,3.40
2022-08-20T19:11:18.613Z,4.55
2022-08-20T19:13:51.147Z,3.80
2022-08-20T19:16:40.633Z,3.70
2022-08-20T19:19:14.695Z,3.42
2022-08-20T19:21:42.805Z,3.15
2022-08-20T19:24:11.398Z,3.90
2022-08-20T19:26:45.402Z,4.00
2022-08-20T19:29:14.689Z,3.95
2022-08-20T19:31:42.052Z,3.45
2022-08-20T19:34:34.961Z,3.50
2022-08-20T19:37:05.205Z,3.92
2022-08-20T19:39:48.562Z,3.67
2022-08-20T19:42:18.856Z,3.60
2022-08-20T19:44:48.685Z,3.70
2022-08-20T19:47:22.304Z,4.05
2022-08-20T19:49:57.450Z,3.85
2022-08-20T19:52:39.260Z,3.55
2022-08-20T19:55:15.158Z,3.50
2022-08-20T19:57:48.813Z,3.13
2022-08-20T20:00:15.782Z,3.70
2022-08-20T20:02:42.320Z,3.75
2022-08-20T20:05:09.719Z,3.55
2022-08-20T20:07:44.626Z,3.90
2022-08-20T20:10:21.909Z,3.60
2022-08-20T20:12:48.482Z,3.65
2022-08-20T20:15:16.044Z,4.13
2022-08-20T20:17:43.226Z,3.58
2022-08-20T20:20:19.033Z,3.53
2022-08-20T20:22:54.546Z,3.75
2022-08-20T20:25:21.100Z,4.25
2022-08-20T20:27:48.903Z,3.67
2022-08-20T20:30:20.600Z,3.78
2022-08-20T20:32:49.130Z,3.40
2022-08-20T20:35:30.173Z,3.97
2022-08-20T20:38:04.679Z,3.58
2022-08-20T20:40:35.873Z,3.35
2022-08-20T20:43:07.530Z,4.10
2022-08-20T20:45:42.043Z,4.18
2022-08-20T20:48:19.664Z,3.10
2022-08-20T20:50:47.609Z,4.45
2022-08-20T20:53:15.962Z,4.40
2022-08-20T20:55:52.830Z,4.03
2022-08-20T20:58:19.471Z,3.75
2022-08-20T21:00:55.384Z,3.56
2022-08-20T21:03:21.938Z,3.92
2022-08-20T21:05:48.596Z,3.80
2022-08-20T21:08:15.186Z,3.80
2022-08-20T21:10:42.220Z,4.13
2022-08-20T21:13:09.418Z,4.18
2022-08-20T21:15:36.509Z,4.00
2022-08-20T21:18:04.705Z,3.50
2022-08-20T21:20:31.722Z,4.30
2022-08-20T21:22:59.096Z,3.97
2022-08-20T21:25:27.055Z,3.83
2022-08-20T21:27:54.879Z,4.87
2022-08-20T21:30:22.504Z,3.77
2022-08-20T21:32:49.672Z,4.07
2022-08-20T21:35:16.132Z,3.53
2022-08-20T21:37:42.647Z,4.87
2022-08-20T21:40:09.933Z,4.40
2022-08-20T21:42:37.327Z,4.47
2022-08-20T21:45:06.366Z,4.43
2022-08-20T21:47:32.847Z,4.13
2022-08-20T21:49:59.378Z,3.90
2022-08-20T21:52:25.865Z,4.23
2022-08-20T21:54:52.415Z,4.18
2022-08-20T21:57:27.668Z,4.35
2022-08-20T21:59:54.358Z,4.13
2022-08-20T22:02:21.318Z,3.77
2022-08-20T22:04:51.867Z,4.47
2022-08-20T22:07:20.659Z,3.27
2022-08-20T22:09:47.100Z,3.40
2022-08-20T22:12:22.125Z,4.33
2022-08-20T22:14:48.669Z,4.20
2022-08-20T22:17:15.331Z,3.83
2022-08-20T22:19:41.876Z,4.70
2022-08-20T22:22:09.044Z,3.73
2022-08-20T22:24:35.560Z,4.10
2022-08-20T22:27:02.090Z,3.80
2022-08-20T22:29:28.565Z,3.43
2022-08-20T22:31:55.142Z,3.90
2022-08-20T22:34:21.754Z,3.77
2022-08-20T22:36:48.461Z,3.83
2022-08-20T22:39:15.170Z,3.77
2022-08-20T22:41:42.001Z,4.07
2022-08-20T22:44:08.543Z,3.90
2022-08-20T22:46:42.477Z,3.80
2022-08-20T22:49:16.365Z,4.20
2022-08-20T22:51:43.227Z,4.83
2022-08-20T22:54:11.133Z,3.97
2022-08-20T22:56:37.920Z,4.00
2022-08-20T22:59:05.778Z,3.70
2022-08-20T23:01:32.310Z,3.17
2022-08-20T23:04:09.658Z,3.60
2022-08-20T23:06:36.156Z,3.70
2022-08-20T23:09:03.148Z,3.90
2022-08-20T23:11:30.535Z,3.30
2022-08-20T23:13:57.125Z,3.73
2022-08-20T23:16:25.327Z,3.77
2022-08-20T23:18:51.900Z,3.50
2022-08-20T23:21:18.356Z,2.37
2022-08-20T23:23:45.475Z,3.63
2022-08-20T23:26:12.947Z,3.03
2022-08-20T23:28:39.388Z,2.30
2022-08-20T23:31:05.918Z,2.00
2022-08-20T23:33:32.453Z,2.37
2022-08-20T23:35:59.387Z,2.57
2022-08-20T23:38:25.877Z,2.10
2022-08-20T23:40:52.362Z,2.37
2022-08-20T23:43:18.860Z,2.53
2022-08-20T23:45:45.388Z,2.73
2022-08-20T23:48:11.905Z,2.53
2022-08-20T23:50:38.822Z,2.47
2022-08-20T23:53:05.453Z,2.33
2022-08-20T23:55:32.383Z,2.53
2022-08-20T23:57:59.029Z,1.77
